createdAt,value
2019-02-18T00:03:18.838Z,"    0"
2019-02-18T00:08:14.024Z,"    0"
2019-02-18T00:13:09.907Z,"    0"
2019-02-18T00:18:05.409Z,"    0"
2019-02-18T00:23:01.754Z,"    0"
2019-02-18T00:27:57.391Z,"    0"
2019-02-18T00:32:52.784Z,"    0"
2019-02-18T00:37:48.607Z,"    0"
2019-02-18T00:42:44.279Z,"    0"
2019-02-18T00:47:39.909Z,"    0"
2019-02-18T00:52:35.654Z,"    0"
2019-02-18T00:57:31.455Z,"    0"
2019-02-18T01:02:27.352Z,"    0"
2019-02-18T01:07:23.322Z,"    0"
2019-02-18T01:12:19.083Z,"    0"
2019-02-18T01:17:14.590Z,"    0"
2019-02-18T01:22:10.146Z,"    0"
2019-02-18T01:27:05.575Z,"    0"
2019-02-18T01:32:01.254Z,"    0"
2019-02-18T01:36:56.656Z,"    0"
2019-02-18T01:41:52.238Z,"    0"
2019-02-18T01:46:47.886Z,"    0"
2019-02-18T01:51:43.788Z,"    0"
2019-02-18T01:56:39.397Z,"    0"
2019-02-18T02:01:36.062Z,"    0"
2019-02-18T02:06:31.477Z,"    0"
2019-02-18T02:11:27.662Z,"    0"
2019-02-18T02:16:23.436Z,"    0"
2019-02-18T02:21:18.826Z,"    0"
2019-02-18T02:26:14.502Z,"    0"
2019-02-18T02:31:09.970Z,"    0"
2019-02-18T02:36:05.677Z,"    0"
2019-02-18T02:41:01.810Z,"    0"
2019-02-18T02:45:57.340Z,"    0"
2019-02-18T02:50:53.997Z,"    0"
2019-02-18T02:55:49.348Z,"    0"
2019-02-18T03:00:45.105Z,"    0"
2019-02-18T03:05:40.777Z,"    0"
2019-02-18T03:10:36.507Z,"    0"
2019-02-18T03:15:33.014Z,"    0"
2019-02-18T03:20:28.155Z,"    0"
2019-02-18T03:25:24.771Z,"    0"
2019-02-18T03:30:20.158Z,"    0"
2019-02-18T03:35:15.713Z,"    0"
2019-02-18T03:40:11.468Z,"    0"
2019-02-18T03:45:07.000Z,"    0"
2019-02-18T03:50:02.603Z,"    0"
2019-02-18T03:54:57.868Z,"    0"
2019-02-18T03:59:53.415Z,"    0"
2019-02-18T04:04:49.051Z,"    0"
2019-02-18T04:09:44.673Z,"    0"
2019-02-18T04:14:40.612Z,"    0"
2019-02-18T04:19:37.223Z,"    0"
2019-02-18T04:24:33.604Z,"    0"
2019-02-18T04:29:28.828Z,"    0"
2019-02-18T04:34:24.200Z,"    0"
2019-02-18T04:39:19.628Z,"    0"
2019-02-18T04:44:15.100Z,"    0"
2019-02-18T04:49:10.733Z,"    0"
2019-02-18T04:54:06.526Z,"    0"
2019-02-18T04:59:02.094Z,"    0"
2019-02-18T05:03:57.833Z,"    0"
2019-02-18T05:08:53.475Z,"    0"
2019-02-18T05:13:49.317Z,"    0"
2019-02-18T05:18:45.526Z,"    0"
2019-02-18T05:23:41.079Z,"    0"
2019-02-18T05:28:36.714Z,"    0"
2019-02-18T05:33:32.403Z,"    0"
2019-02-18T05:38:27.914Z,"    0"
2019-02-18T05:43:23.565Z,"    0"
2019-02-18T05:48:19.060Z,"    0"
2019-02-18T05:53:14.648Z,"    0"
2019-02-18T05:58:10.382Z,"    0"
2019-02-18T06:03:07.036Z,"    0"
2019-02-18T06:08:02.471Z,"    4"
2019-02-18T06:12:58.037Z,"    4"
2019-02-18T06:17:54.668Z,"   12"
2019-02-18T06:22:50.080Z,"   24"
2019-02-18T06:27:45.789Z,"   52"
2019-02-18T06:32:41.115Z,"   96"
2019-02-18T06:37:36.652Z,"  160"
2019-02-18T06:42:32.376Z,"  244"
2019-02-18T06:47:28.228Z,"  348"
2019-02-18T06:52:23.802Z,"  472"
2019-02-18T06:57:19.558Z,"  612"
2019-02-18T07:02:15.277Z,"  756"
2019-02-18T07:07:10.996Z,"  904"
2019-02-18T07:12:07.696Z," 1048"
2019-02-18T07:17:04.001Z," 1200"
2019-02-18T07:21:59.416Z," 1336"
2019-02-18T07:26:55.143Z," 1464"
2019-02-18T07:31:50.773Z," 1628"
2019-02-18T07:36:46.690Z," 1768"
2019-02-18T07:41:42.439Z," 1852"
2019-02-18T07:46:38.183Z," 2048"
2019-02-18T07:51:34.925Z," 2232"
2019-02-18T07:56:30.897Z," 2300"
2019-02-18T08:01:27.701Z," 2240"
2019-02-18T08:06:23.143Z," 2496"
2019-02-18T08:11:18.482Z," 2612"
2019-02-18T08:16:14.330Z," 2636"
2019-02-18T08:21:10.187Z," 2692"
2019-02-18T08:26:05.919Z," 2656"
2019-02-18T08:31:01.695Z," 2896"
2019-02-18T08:35:57.527Z," 3460"
2019-02-18T08:40:53.255Z," 2904"
2019-02-18T08:45:50.277Z," 2836"
2019-02-18T08:50:47.017Z," 3144"
2019-02-18T08:55:43.030Z," 3816"
2019-02-18T09:00:40.392Z," 3072"
2019-02-18T09:05:37.898Z," 3568"
2019-02-18T09:10:34.103Z," 3532"
2019-02-18T09:15:29.846Z," 4984"
2019-02-18T09:20:27.044Z," 4208"
2019-02-18T09:25:22.584Z," 4356"
2019-02-18T09:30:18.585Z," 3688"
2019-02-18T09:35:15.819Z," 3696"
2019-02-18T09:40:11.231Z," 3696"
2019-02-18T09:45:07.712Z," 6408"
2019-02-18T09:50:03.867Z," 8044"
2019-02-18T09:55:00.936Z," 7016"
2019-02-18T09:59:57.685Z," 6888"
2019-02-18T10:04:53.150Z," 9384"
2019-02-18T10:09:50.367Z," 9496"
2019-02-18T10:14:46.692Z," 7132"
2019-02-18T10:19:43.170Z," 9716"
2019-02-18T10:24:50.237Z,11876
2019-02-18T10:29:39.111Z," 7916"
2019-02-18T10:34:34.987Z,13028
2019-02-18T10:39:31.054Z,14052
2019-02-18T10:44:27.336Z," 9428"
2019-02-18T10:49:23.428Z," 9948"
2019-02-18T10:54:19.625Z,15552
2019-02-18T10:59:15.596Z,15356
2019-02-18T11:04:12.691Z,16092
2019-02-18T11:09:09.221Z,12072
2019-02-18T11:14:04.933Z,12620
2019-02-18T11:19:00.827Z,15076
2019-02-18T11:23:56.870Z,28704
2019-02-18T11:28:52.929Z,24480
2019-02-18T11:33:49.407Z,21792
2019-02-18T11:38:45.647Z,28096
2019-02-18T11:43:41.515Z,23712
2019-02-18T11:48:37.622Z,19936
2019-02-18T11:53:34.307Z,12984
2019-02-18T11:58:30.009Z,15388
2019-02-18T12:03:27.128Z,19168
2019-02-18T12:08:23.898Z,14320
2019-02-18T12:13:19.984Z,13736
2019-02-18T12:18:17.050Z," 5136"
2019-02-18T12:23:13.167Z," 7356"
2019-02-18T12:28:08.911Z,15680
2019-02-18T12:33:04.953Z,20352
2019-02-18T12:38:00.836Z,11988
2019-02-18T12:42:56.705Z,14284
2019-02-18T12:47:52.349Z," 8880"
2019-02-18T12:52:48.237Z," 7312"
2019-02-18T12:57:45.487Z," 4268"
2019-02-18T13:02:44.439Z," 4140"
2019-02-18T13:07:39.130Z," 3784"
2019-02-18T13:12:35.418Z," 3364"
2019-02-18T13:17:32.177Z," 3272"
2019-02-18T13:22:28.359Z," 3308"
2019-02-18T13:27:24.224Z," 3388"
2019-02-18T13:32:20.947Z," 3388"
2019-02-18T13:37:16.773Z," 3484"
2019-02-18T13:42:13.027Z," 3680"
2019-02-18T13:47:09.444Z," 3740"
2019-02-18T13:52:05.679Z," 3596"
2019-02-18T13:57:08.206Z," 3496"
2019-02-18T14:02:01.110Z," 3488"
2019-02-18T14:06:57.226Z," 3680"
2019-02-18T14:11:53.147Z," 3772"
2019-02-18T14:16:49.228Z," 3724"
2019-02-18T14:21:46.135Z," 3500"
2019-02-18T14:26:41.923Z," 3340"
2019-02-18T14:31:37.566Z," 3200"
2019-02-18T14:36:33.198Z," 2976"
2019-02-18T14:41:29.221Z," 2800"
2019-02-18T14:46:24.929Z," 2732"
2019-02-18T14:51:21.850Z," 2788"
2019-02-18T14:56:17.714Z," 2784"
2019-02-18T15:01:13.426Z," 2624"
2019-02-18T15:06:10.198Z," 2628"
2019-02-18T15:11:05.539Z," 2612"
2019-02-18T15:16:00.937Z," 2576"
2019-02-18T15:20:57.753Z," 2416"
2019-02-18T15:25:53.250Z," 1824"
2019-02-18T15:30:49.456Z," 1728"
2019-02-18T15:35:45.181Z," 1648"
2019-02-18T15:40:40.588Z," 1572"
2019-02-18T15:45:36.527Z," 1500"
2019-02-18T15:50:32.339Z," 1376"
2019-02-18T15:55:28.396Z," 1288"
2019-02-18T16:00:24.024Z," 1184"
2019-02-18T16:05:19.709Z," 1044"
2019-02-18T16:10:15.433Z,"  876"
2019-02-18T16:15:11.407Z,"  716"
2019-02-18T16:20:07.054Z,"  632"
2019-02-18T16:25:02.843Z,"  516"
2019-02-18T16:29:59.465Z,"  400"
2019-02-18T16:34:56.465Z,"  304"
2019-02-18T16:39:52.878Z,"  220"
2019-02-18T16:44:49.210Z,"  152"
2019-02-18T16:49:44.588Z,"  100"
2019-02-18T16:54:41.011Z,"   56"
2019-02-18T16:59:37.741Z,"   28"
2019-02-18T17:04:33.332Z,"   12"
2019-02-18T17:09:30.003Z,"    8"
2019-02-18T17:14:25.286Z,"    4"
2019-02-18T17:19:21.038Z,"    0"
2019-02-18T17:24:17.599Z,"    0"
2019-02-18T17:29:13.480Z,"    0"
2019-02-18T17:34:10.986Z,"    0"
2019-02-18T17:39:06.629Z,"    0"
2019-02-18T17:44:03.433Z,"    0"
2019-02-18T17:48:58.986Z,"    0"
2019-02-18T17:53:55.617Z,"    0"
2019-02-18T17:58:51.122Z,"    0"
2019-02-18T18:03:47.545Z,"    0"
2019-02-18T18:08:43.392Z,"    0"
2019-02-18T18:13:40.566Z,"    0"
2019-02-18T18:18:36.201Z,"    0"
2019-02-18T18:23:32.336Z,"    0"
2019-02-18T18:28:28.448Z,"    0"
2019-02-18T18:33:25.143Z,"    0"
2019-02-18T18:38:22.780Z,"    0"
2019-02-18T18:43:18.007Z,"    0"
2019-02-18T18:48:13.828Z,"    0"
2019-02-18T18:53:09.743Z,"    0"
2019-02-18T18:58:05.487Z,"    0"
2019-02-18T19:03:02.355Z,"    0"
2019-02-18T19:07:59.054Z,"    0"
2019-02-18T19:12:54.302Z,"    0"
2019-02-18T19:17:50.839Z,"    0"
2019-02-18T19:22:46.149Z,"    0"
2019-02-18T19:27:42.830Z,"    0"
2019-02-18T19:32:38.216Z,"    0"
2019-02-18T19:37:34.150Z,"    0"
2019-02-18T19:42:29.861Z,"    0"
2019-02-18T19:47:25.633Z,"    0"
2019-02-18T19:52:21.340Z,"    0"
2019-02-18T19:57:16.958Z,"    0"
2019-02-18T20:02:12.449Z,"    0"
2019-02-18T20:07:07.999Z,"    0"
2019-02-18T20:12:05.231Z,"    0"
2019-02-18T20:17:00.550Z,"    0"
2019-02-18T20:21:56.842Z,"    0"
2019-02-18T20:26:53.321Z,"    0"
2019-02-18T20:31:49.099Z,"    0"
2019-02-18T20:36:44.821Z,"    0"
2019-02-18T20:41:41.906Z,"    0"
2019-02-18T20:46:37.753Z,"    0"
2019-02-18T20:51:34.206Z,"    0"
2019-02-18T20:56:29.889Z,"    0"
2019-02-18T21:01:26.921Z,"    0"
2019-02-18T21:06:23.282Z,"    0"
2019-02-18T21:11:18.966Z,"    0"
2019-02-18T21:16:15.726Z,"    0"
2019-02-18T21:21:11.254Z,"    0"
2019-02-18T21:26:06.963Z,"    0"
2019-02-18T21:31:03.458Z,"    0"
2019-02-18T21:36:00.375Z,"    0"
2019-02-18T21:40:55.907Z,"    0"
2019-02-18T21:45:51.551Z,"    0"
2019-02-18T21:50:47.283Z,"    0"
2019-02-18T21:55:42.910Z,"    0"
2019-02-18T22:00:38.837Z,"    0"
2019-02-18T22:05:34.975Z,"    0"
2019-02-18T22:10:30.802Z,"    0"
2019-02-18T22:15:27.186Z,"    0"
2019-02-18T22:20:23.749Z,"    0"
2019-02-18T22:25:19.673Z,"    0"
2019-02-18T22:30:15.713Z,"    0"
2019-02-18T22:35:12.343Z,"    0"
2019-02-18T22:40:07.810Z,"    0"
2019-02-18T22:45:03.607Z,"    0"
2019-02-18T22:50:00.283Z,"    0"
2019-02-18T22:54:55.886Z,"    0"
2019-02-18T22:59:52.519Z,"    0"
2019-02-18T23:04:49.538Z,"    0"
2019-02-18T23:09:46.396Z,"    0"
2019-02-18T23:14:41.314Z,"    0"
2019-02-18T23:19:37.994Z,"    0"
2019-02-18T23:24:33.449Z,"    0"
2019-02-18T23:29:29.393Z,"    0"
2019-02-18T23:34:24.815Z,"    0"
2019-02-18T23:39:20.961Z,"    0"
2019-02-18T23:44:17.272Z,"    0"
2019-02-18T23:49:13.252Z,"    0"
2019-02-18T23:54:09.006Z,"    0"
2019-02-18T23:59:04.637Z,"    0"
